TAF and METAR

METAR for Hermes Quijada International Airport

SAWE 192000Z 29031KT CAVOK 16/03 Q0996
Report created 19. okt 22:00
wind 31 knots from WNW (290°) Clear sky Temperature 16° with dewpoint at 3° (Humidity 41.73%) Pressure 996 hPa

TAF for Hermes Quijada International Airport

TAF SAWE 191700Z 1918/2018 29030G40KT 9999 FEW020 TX18/1917Z TN09/2003Z PROB40 TEMPO 1918/1920 29035G50KT BECMG 1921/1923 29020KT 8000 -RA BKN010 OVC30 BECMG 2009/2011 27020KT CAVOK
Report created 19. okt 19:00

between 19. okt 20:00 - 20. okt 20:00

wind 30 knots from WNW (290°) with gusts up to 40 knots visibility > 10km some clouds (~25% cover) at 2000 feet Max temperature 18° expected today at around 19 o'clock Min temperature 09° expected tomorrow at around 05 o'clock

probably (~40%) temporarily between 19. okt 20:00 - 19. okt 22:00

wind 35 knots from WNW (290°) with gusts up to 50 knots

becoming between 19. okt 23:00 - 20. okt 01:00

wind 20 knots from WNW (290°) visibility 8000 meters light rain broken clouds (~75% cover) at 1000 feet
Hermes Quijada International Airport in Argentina at 22m

Latest 5 airports